sensor_id;sensor_type;location;lat;lon;timestamp;P1;durP1;ratioP1;P2;durP2;ratioP2
7359;SDS011;3720;48.274;7.796;2022-10-30T00:00:37;23.83;;;10.73;;
7359;SDS011;3720;48.274;7.796;2022-10-30T00:03:10;21.83;;;9.20;;
7359;SDS011;3720;48.274;7.796;2022-10-30T00:05:44;20.67;;;8.60;;
7359;SDS011;3720;48.274;7.796;2022-10-30T00:08:18;17.70;;;8.68;;
7359;SDS011;3720;48.274;7.796;2022-10-30T00:10:51;16.50;;;8.52;;
7359;SDS011;3720;48.274;7.796;2022-10-30T00:13:24;17.73;;;8.40;;
7359;SDS011;3720;48.274;7.796;2022-10-30T00:15:57;17.83;;;8.77;;
7359;SDS011;3720;48.274;7.796;2022-10-30T00:18:29;16.02;;;8.80;;
7359;SDS011;3720;48.274;7.796;2022-10-30T00:21:03;14.02;;;8.55;;
7359;SDS011;3720;48.274;7.796;2022-10-30T00:23:36;17.88;;;7.63;;
7359;SDS011;3720;48.274;7.796;2022-10-30T00:26:09;17.05;;;7.30;;
7359;SDS011;3720;48.274;7.796;2022-10-30T00:28:41;13.55;;;7.15;;
7359;SDS011;3720;48.274;7.796;2022-10-30T00:31:15;16.83;;;7.43;;
7359;SDS011;3720;48.274;7.796;2022-10-30T00:33:48;16.38;;;7.45;;
7359;SDS011;3720;48.274;7.796;2022-10-30T00:36:20;16.50;;;8.05;;
7359;SDS011;3720;48.274;7.796;2022-10-30T00:38:53;15.75;;;7.28;;
7359;SDS011;3720;48.274;7.796;2022-10-30T00:41:25;13.70;;;7.05;;
7359;SDS011;3720;48.274;7.796;2022-10-30T00:43:57;14.52;;;7.20;;
7359;SDS011;3720;48.274;7.796;2022-10-30T00:46:32;18.30;;;7.35;;
7359;SDS011;3720;48.274;7.796;2022-10-30T00:49:08;17.08;;;7.03;;
7359;SDS011;3720;48.274;7.796;2022-10-30T00:51:44;13.75;;;7.00;;
7359;SDS011;3720;48.274;7.796;2022-10-30T00:54:18;18.02;;;7.35;;
7359;SDS011;3720;48.274;7.796;2022-10-30T00:56:52;16.17;;;7.20;;
7359;SDS011;3720;48.274;7.796;2022-10-30T00:59:26;15.68;;;7.25;;
7359;SDS011;3720;48.274;7.796;2022-10-30T01:02:04;17.08;;;7.53;;
7359;SDS011;3720;48.274;7.796;2022-10-30T01:04:37;15.73;;;7.03;;
7359;SDS011;3720;48.274;7.796;2022-10-30T01:07:12;16.27;;;7.50;;
7359;SDS011;3720;48.274;7.796;2022-10-30T01:09:47;18.20;;;8.27;;
7359;SDS011;3720;48.274;7.796;2022-10-30T01:12:19;15.05;;;7.72;;
7359;SDS011;3720;48.274;7.796;2022-10-30T01:14:51;15.38;;;7.47;;
7359;SDS011;3720;48.274;7.796;2022-10-30T01:17:34;16.23;;;7.35;;
7359;SDS011;3720;48.274;7.796;2022-10-30T01:20:28;17.55;;;7.85;;
7359;SDS011;3720;48.274;7.796;2022-10-30T01:23:22;16.80;;;8.07;;
7359;SDS011;3720;48.274;7.796;2022-10-30T01:26:06;15.23;;;7.43;;
7359;SDS011;3720;48.274;7.796;2022-10-30T01:28:49;16.63;;;6.60;;
7359;SDS011;3720;48.274;7.796;2022-10-30T01:31:38;11.93;;;6.43;;
7359;SDS011;3720;48.274;7.796;2022-10-30T01:34:18;15.52;;;6.85;;
7359;SDS011;3720;48.274;7.796;2022-10-30T01:36:54;15.43;;;6.32;;
7359;SDS011;3720;48.274;7.796;2022-10-30T01:39:32;14.23;;;6.82;;
7359;SDS011;3720;48.274;7.796;2022-10-30T01:42:07;12.00;;;6.80;;
7359;SDS011;3720;48.274;7.796;2022-10-30T01:44:40;12.20;;;6.10;;
7359;SDS011;3720;48.274;7.796;2022-10-30T01:47:15;15.85;;;7.00;;
7359;SDS011;3720;48.274;7.796;2022-10-30T01:50:04;13.77;;;6.57;;
7359;SDS011;3720;48.274;7.796;2022-10-30T01:52:50;14.38;;;6.07;;
7359;SDS011;3720;48.274;7.796;2022-10-30T01:55:30;14.13;;;6.40;;
7359;SDS011;3720;48.274;7.796;2022-10-30T01:58:09;18.77;;;6.18;;
7359;SDS011;3720;48.274;7.796;2022-10-30T02:00:51;12.93;;;6.28;;
7359;SDS011;3720;48.274;7.796;2022-10-30T02:03:25;14.27;;;6.70;;
7359;SDS011;3720;48.274;7.796;2022-10-30T02:05:59;15.38;;;6.22;;
7359;SDS011;3720;48.274;7.796;2022-10-30T02:08:31;13.32;;;6.35;;
7359;SDS011;3720;48.274;7.796;2022-10-30T02:11:03;13.68;;;5.93;;
7359;SDS011;3720;48.274;7.796;2022-10-30T02:13:36;13.32;;;6.50;;
7359;SDS011;3720;48.274;7.796;2022-10-30T02:16:08;14.63;;;6.63;;
7359;SDS011;3720;48.274;7.796;2022-10-30T02:18:41;14.25;;;6.75;;
7359;SDS011;3720;48.274;7.796;2022-10-30T02:21:15;14.18;;;6.70;;
7359;SDS011;3720;48.274;7.796;2022-10-30T02:23:47;13.82;;;6.40;;
7359;SDS011;3720;48.274;7.796;2022-10-30T02:26:19;11.52;;;6.45;;
7359;SDS011;3720;48.274;7.796;2022-10-30T02:28:51;13.50;;;6.22;;
7359;SDS011;3720;48.274;7.796;2022-10-30T02:31:23;13.63;;;6.82;;
7359;SDS011;3720;48.274;7.796;2022-10-30T02:33:55;11.43;;;6.18;;
7359;SDS011;3720;48.274;7.796;2022-10-30T02:36:29;16.98;;;6.70;;
7359;SDS011;3720;48.274;7.796;2022-10-30T02:39:00;18.67;;;7.32;;
7359;SDS011;3720;48.274;7.796;2022-10-30T02:41:32;16.77;;;6.95;;
7359;SDS011;3720;48.274;7.796;2022-10-30T02:44:04;18.13;;;7.40;;
7359;SDS011;3720;48.274;7.796;2022-10-30T02:46:36;12.77;;;6.60;;
7359;SDS011;3720;48.274;7.796;2022-10-30T02:49:08;12.75;;;6.53;;
7359;SDS011;3720;48.274;7.796;2022-10-30T02:51:42;16.00;;;6.78;;
7359;SDS011;3720;48.274;7.796;2022-10-30T02:54:14;15.95;;;6.70;;
7359;SDS011;3720;48.274;7.796;2022-10-30T02:56:46;15.52;;;6.72;;
7359;SDS011;3720;48.274;7.796;2022-10-30T02:59:18;13.98;;;6.40;;
7359;SDS011;3720;48.274;7.796;2022-10-30T03:01:50;15.77;;;6.57;;
7359;SDS011;3720;48.274;7.796;2022-10-30T03:04:22;12.80;;;6.00;;
7359;SDS011;3720;48.274;7.796;2022-10-30T03:06:56;13.15;;;5.93;;
7359;SDS011;3720;48.274;7.796;2022-10-30T03:09:27;12.80;;;6.22;;
7359;SDS011;3720;48.274;7.796;2022-10-30T03:11:59;15.00;;;6.53;;
7359;SDS011;3720;48.274;7.796;2022-10-30T03:14:32;14.20;;;6.70;;
7359;SDS011;3720;48.274;7.796;2022-10-30T03:17:03;13.93;;;7.10;;
7359;SDS011;3720;48.274;7.796;2022-10-30T03:19:36;12.52;;;6.50;;
7359;SDS011;3720;48.274;7.796;2022-10-30T03:22:11;13.15;;;6.40;;
7359;SDS011;3720;48.274;7.796;2022-10-30T03:24:43;12.70;;;5.90;;
7359;SDS011;3720;48.274;7.796;2022-10-30T03:27:15;12.00;;;5.85;;
7359;SDS011;3720;48.274;7.796;2022-10-30T03:29:46;14.02;;;5.72;;
7359;SDS011;3720;48.274;7.796;2022-10-30T03:32:18;12.95;;;6.15;;
7359;SDS011;3720;48.274;7.796;2022-10-30T03:34:50;12.48;;;6.07;;
7359;SDS011;3720;48.274;7.796;2022-10-30T03:37:23;11.23;;;5.50;;
7359;SDS011;3720;48.274;7.796;2022-10-30T03:39:55;11.85;;;5.50;;
7359;SDS011;3720;48.274;7.796;2022-10-30T03:42:27;13.00;;;5.57;;
7359;SDS011;3720;48.274;7.796;2022-10-30T03:44:59;13.02;;;5.28;;
7359;SDS011;3720;48.274;7.796;2022-10-30T03:47:31;13.35;;;6.07;;
7359;SDS011;3720;48.274;7.796;2022-10-30T03:50:04;13.38;;;5.90;;
7359;SDS011;3720;48.274;7.796;2022-10-30T03:52:37;11.38;;;5.32;;
7359;SDS011;3720;48.274;7.796;2022-10-30T03:55:09;12.43;;;5.45;;
7359;SDS011;3720;48.274;7.796;2022-10-30T03:57:41;10.13;;;5.15;;
7359;SDS011;3720;48.274;7.796;2022-10-30T04:00:13;12.52;;;5.63;;
7359;SDS011;3720;48.274;7.796;2022-10-30T04:02:46;15.75;;;5.78;;
7359;SDS011;3720;48.274;7.796;2022-10-30T04:05:19;13.70;;;5.80;;
7359;SDS011;3720;48.274;7.796;2022-10-30T04:07:57;13.55;;;5.82;;
7359;SDS011;3720;48.274;7.796;2022-10-30T04:10:31;15.45;;;6.10;;
7359;SDS011;3720;48.274;7.796;2022-10-30T04:13:04;11.80;;;5.57;;
7359;SDS011;3720;48.274;7.796;2022-10-30T04:15:37;12.65;;;6.07;;
7359;SDS011;3720;48.274;7.796;2022-10-30T04:18:09;15.13;;;5.65;;
7359;SDS011;3720;48.274;7.796;2022-10-30T04:20:42;12.10;;;5.43;;
7359;SDS011;3720;48.274;7.796;2022-10-30T04:23:17;12.02;;;5.78;;
7359;SDS011;3720;48.274;7.796;2022-10-30T04:25:50;10.10;;;5.45;;
7359;SDS011;3720;48.274;7.796;2022-10-30T04:28:22;14.93;;;5.50;;
7359;SDS011;3720;48.274;7.796;2022-10-30T04:30:54;10.25;;;4.95;;
7359;SDS011;3720;48.274;7.796;2022-10-30T04:33:27;14.05;;;5.07;;
7359;SDS011;3720;48.274;7.796;2022-10-30T04:35:58;9.93;;;5.07;;
7359;SDS011;3720;48.274;7.796;2022-10-30T04:38:32;13.77;;;5.22;;
7359;SDS011;3720;48.274;7.796;2022-10-30T04:41:04;8.05;;;4.55;;
7359;SDS011;3720;48.274;7.796;2022-10-30T04:43:35;9.93;;;4.80;;
7359;SDS011;3720;48.274;7.796;2022-10-30T04:46:07;9.32;;;4.65;;
7359;SDS011;3720;48.274;7.796;2022-10-30T04:48:39;11.43;;;5.10;;
7359;SDS011;3720;48.274;7.796;2022-10-30T04:51:12;10.90;;;5.07;;
7359;SDS011;3720;48.274;7.796;2022-10-30T04:53:46;10.30;;;4.53;;
7359;SDS011;3720;48.274;7.796;2022-10-30T04:56:18;9.98;;;4.93;;
7359;SDS011;3720;48.274;7.796;2022-10-30T04:58:50;8.77;;;4.30;;
7359;SDS011;3720;48.274;7.796;2022-10-30T05:01:22;14.63;;;5.03;;
7359;SDS011;3720;48.274;7.796;2022-10-30T05:03:54;10.15;;;4.70;;
7359;SDS011;3720;48.274;7.796;2022-10-30T05:06:28;10.40;;;5.07;;
7359;SDS011;3720;48.274;7.796;2022-10-30T05:09:02;10.55;;;4.75;;
7359;SDS011;3720;48.274;7.796;2022-10-30T05:11:34;11.77;;;4.60;;
7359;SDS011;3720;48.274;7.796;2022-10-30T05:14:06;10.05;;;4.20;;
7359;SDS011;3720;48.274;7.796;2022-10-30T05:16:38;12.43;;;4.70;;
7359;SDS011;3720;48.274;7.796;2022-10-30T05:19:10;11.85;;;4.38;;
7359;SDS011;3720;48.274;7.796;2022-10-30T05:21:42;9.30;;;4.30;;
7359;SDS011;3720;48.274;7.796;2022-10-30T05:24:16;9.77;;;4.30;;
7359;SDS011;3720;48.274;7.796;2022-10-30T05:26:48;11.18;;;4.60;;
7359;SDS011;3720;48.274;7.796;2022-10-30T05:29:20;9.13;;;4.03;;
7359;SDS011;3720;48.274;7.796;2022-10-30T05:31:52;14.15;;;4.70;;
7359;SDS011;3720;48.274;7.796;2022-10-30T05:34:24;8.70;;;4.80;;
7359;SDS011;3720;48.274;7.796;2022-10-30T05:36:56;10.43;;;4.13;;
7359;SDS011;3720;48.274;7.796;2022-10-30T05:39:29;12.18;;;4.43;;
7359;SDS011;3720;48.274;7.796;2022-10-30T05:42:01;10.10;;;4.20;;
7359;SDS011;3720;48.274;7.796;2022-10-30T05:44:33;13.43;;;4.70;;
7359;SDS011;3720;48.274;7.796;2022-10-30T05:47:05;12.95;;;4.32;;
7359;SDS011;3720;48.274;7.796;2022-10-30T05:49:37;9.60;;;4.45;;
7359;SDS011;3720;48.274;7.796;2022-10-30T05:52:09;10.63;;;4.57;;
7359;SDS011;3720;48.274;7.796;2022-10-30T05:54:42;10.05;;;4.40;;
7359;SDS011;3720;48.274;7.796;2022-10-30T05:57:14;8.13;;;4.53;;
7359;SDS011;3720;48.274;7.796;2022-10-30T05:59:46;13.07;;;5.00;;
7359;SDS011;3720;48.274;7.796;2022-10-30T06:02:18;12.18;;;4.70;;
7359;SDS011;3720;48.274;7.796;2022-10-30T06:04:49;13.35;;;4.53;;
7359;SDS011;3720;48.274;7.796;2022-10-30T06:07:21;10.70;;;4.20;;
7359;SDS011;3720;48.274;7.796;2022-10-30T06:09:54;8.80;;;4.25;;
7359;SDS011;3720;48.274;7.796;2022-10-30T06:12:26;9.27;;;4.00;;
7359;SDS011;3720;48.274;7.796;2022-10-30T06:14:58;11.40;;;4.63;;
7359;SDS011;3720;48.274;7.796;2022-10-30T06:17:30;11.38;;;5.03;;
7359;SDS011;3720;48.274;7.796;2022-10-30T06:20:02;11.70;;;5.75;;
7359;SDS011;3720;48.274;7.796;2022-10-30T06:22:35;10.48;;;5.13;;
7359;SDS011;3720;48.274;7.796;2022-10-30T06:25:09;10.80;;;5.10;;
7359;SDS011;3720;48.274;7.796;2022-10-30T06:27:41;16.30;;;5.30;;
7359;SDS011;3720;48.274;7.796;2022-10-30T06:30:13;9.98;;;5.43;;
7359;SDS011;3720;48.274;7.796;2022-10-30T06:32:45;9.52;;;5.20;;
7359;SDS011;3720;48.274;7.796;2022-10-30T06:35:17;11.00;;;5.35;;
7359;SDS011;3720;48.274;7.796;2022-10-30T06:37:49;12.50;;;5.32;;
7359;SDS011;3720;48.274;7.796;2022-10-30T06:40:24;10.75;;;5.10;;
7359;SDS011;3720;48.274;7.796;2022-10-30T06:42:56;9.85;;;4.97;;
7359;SDS011;3720;48.274;7.796;2022-10-30T06:45:28;11.15;;;5.22;;
7359;SDS011;3720;48.274;7.796;2022-10-30T06:48:00;12.30;;;5.18;;
7359;SDS011;3720;48.274;7.796;2022-10-30T06:50:32;16.40;;;5.72;;
7359;SDS011;3720;48.274;7.796;2022-10-30T06:53:04;9.63;;;5.32;;
7359;SDS011;3720;48.274;7.796;2022-10-30T06:55:37;15.13;;;5.50;;
7359;SDS011;3720;48.274;7.796;2022-10-30T06:58:09;10.65;;;4.80;;
7359;SDS011;3720;48.274;7.796;2022-10-30T07:00:41;10.40;;;5.18;;
7359;SDS011;3720;48.274;7.796;2022-10-30T07:03:13;9.95;;;5.28;;
7359;SDS011;3720;48.274;7.796;2022-10-30T07:05:45;15.18;;;6.13;;
7359;SDS011;3720;48.274;7.796;2022-10-30T07:08:17;12.63;;;4.80;;
7359;SDS011;3720;48.274;7.796;2022-10-30T07:10:50;12.15;;;5.10;;
7359;SDS011;3720;48.274;7.796;2022-10-30T07:13:22;11.85;;;5.05;;
7359;SDS011;3720;48.274;7.796;2022-10-30T07:15:54;9.02;;;5.03;;
7359;SDS011;3720;48.274;7.796;2022-10-30T07:18:28;8.95;;;4.47;;
7359;SDS011;3720;48.274;7.796;2022-10-30T07:21:00;11.93;;;4.85;;
7359;SDS011;3720;48.274;7.796;2022-10-30T07:23:32;9.63;;;4.93;;
7359;SDS011;3720;48.274;7.796;2022-10-30T07:26:05;12.68;;;5.22;;
7359;SDS011;3720;48.274;7.796;2022-10-30T07:28:37;12.07;;;5.30;;
7359;SDS011;3720;48.274;7.796;2022-10-30T07:31:09;12.68;;;5.30;;
7359;SDS011;3720;48.274;7.796;2022-10-30T07:33:41;14.80;;;5.65;;
7359;SDS011;3720;48.274;7.796;2022-10-30T07:36:13;10.90;;;5.30;;
7359;SDS011;3720;48.274;7.796;2022-10-30T07:38:46;11.13;;;5.30;;
7359;SDS011;3720;48.274;7.796;2022-10-30T07:41:20;11.07;;;5.05;;
7359;SDS011;3720;48.274;7.796;2022-10-30T07:43:52;7.70;;;4.35;;
7359;SDS011;3720;48.274;7.796;2022-10-30T07:46:24;11.20;;;5.07;;
7359;SDS011;3720;48.274;7.796;2022-10-30T07:48:55;10.07;;;4.68;;
7359;SDS011;3720;48.274;7.796;2022-10-30T07:51:27;9.88;;;5.10;;
7359;SDS011;3720;48.274;7.796;2022-10-30T07:53:59;8.75;;;4.43;;
7359;SDS011;3720;48.274;7.796;2022-10-30T07:56:33;7.85;;;4.53;;
7359;SDS011;3720;48.274;7.796;2022-10-30T07:59:05;7.57;;;4.55;;
7359;SDS011;3720;48.274;7.796;2022-10-30T08:01:37;7.82;;;4.43;;
7359;SDS011;3720;48.274;7.796;2022-10-30T08:04:08;9.38;;;4.45;;
7359;SDS011;3720;48.274;7.796;2022-10-30T08:06:43;8.15;;;4.28;;
7359;SDS011;3720;48.274;7.796;2022-10-30T08:09:14;9.35;;;4.15;;
7359;SDS011;3720;48.274;7.796;2022-10-30T08:11:48;9.15;;;4.28;;
7359;SDS011;3720;48.274;7.796;2022-10-30T08:14:20;8.80;;;4.18;;
7359;SDS011;3720;48.274;7.796;2022-10-30T08:16:52;9.77;;;4.30;;
7359;SDS011;3720;48.274;7.796;2022-10-30T08:19:24;13.38;;;4.03;;
7359;SDS011;3720;48.274;7.796;2022-10-30T08:21:56;10.40;;;5.10;;
7359;SDS011;3720;48.274;7.796;2022-10-30T08:24:28;9.55;;;4.53;;
7359;SDS011;3720;48.274;7.796;2022-10-30T08:27:02;14.68;;;5.85;;
7359;SDS011;3720;48.274;7.796;2022-10-30T08:29:34;11.60;;;5.07;;
7359;SDS011;3720;48.274;7.796;2022-10-30T08:32:06;11.05;;;5.25;;
7359;SDS011;3720;48.274;7.796;2022-10-30T08:34:38;10.32;;;5.15;;
7359;SDS011;3720;48.274;7.796;2022-10-30T08:37:10;12.00;;;5.30;;
7359;SDS011;3720;48.274;7.796;2022-10-30T08:39:42;8.20;;;4.10;;
7359;SDS011;3720;48.274;7.796;2022-10-30T08:42:15;13.02;;;5.00;;
7359;SDS011;3720;48.274;7.796;2022-10-30T08:44:47;8.93;;;5.10;;
7359;SDS011;3720;48.274;7.796;2022-10-30T08:47:19;13.10;;;4.80;;
7359;SDS011;3720;48.274;7.796;2022-10-30T08:49:50;10.63;;;5.05;;
7359;SDS011;3720;48.274;7.796;2022-10-30T08:52:22;10.52;;;5.20;;
7359;SDS011;3720;48.274;7.796;2022-10-30T08:54:54;12.15;;;5.10;;
7359;SDS011;3720;48.274;7.796;2022-10-30T08:57:27;9.50;;;4.65;;
7359;SDS011;3720;48.274;7.796;2022-10-30T09:00:05;11.38;;;4.65;;
7359;SDS011;3720;48.274;7.796;2022-10-30T09:02:38;8.65;;;4.70;;
7359;SDS011;3720;48.274;7.796;2022-10-30T09:05:10;11.25;;;4.93;;
7359;SDS011;3720;48.274;7.796;2022-10-30T09:07:42;13.15;;;4.80;;
7359;SDS011;3720;48.274;7.796;2022-10-30T09:10:14;11.70;;;5.20;;
7359;SDS011;3720;48.274;7.796;2022-10-30T09:12:47;13.23;;;4.97;;
7359;SDS011;3720;48.274;7.796;2022-10-30T09:15:25;15.00;;;5.13;;
7359;SDS011;3720;48.274;7.796;2022-10-30T09:17:58;12.90;;;5.32;;
7359;SDS011;3720;48.274;7.796;2022-10-30T09:20:32;12.77;;;4.88;;
7359;SDS011;3720;48.274;7.796;2022-10-30T09:23:04;14.32;;;5.93;;
7359;SDS011;3720;48.274;7.796;2022-10-30T09:25:35;13.80;;;5.60;;
7359;SDS011;3720;48.274;7.796;2022-10-30T09:28:09;13.13;;;5.25;;
7359;SDS011;3720;48.274;7.796;2022-10-30T09:30:41;14.57;;;5.75;;
7359;SDS011;3720;48.274;7.796;2022-10-30T09:33:13;14.80;;;5.30;;
7359;SDS011;3720;48.274;7.796;2022-10-30T09:35:45;13.18;;;5.20;;
7359;SDS011;3720;48.274;7.796;2022-10-30T09:38:17;16.60;;;5.53;;
7359;SDS011;3720;48.274;7.796;2022-10-30T09:40:57;13.70;;;5.40;;
7359;SDS011;3720;48.274;7.796;2022-10-30T09:43:56;15.65;;;5.00;;
7359;SDS011;3720;48.274;7.796;2022-10-30T09:46:43;13.75;;;5.55;;
7359;SDS011;3720;48.274;7.796;2022-10-30T09:49:33;11.00;;;4.75;;
7359;SDS011;3720;48.274;7.796;2022-10-30T09:52:19;11.13;;;5.47;;
7359;SDS011;3720;48.274;7.796;2022-10-30T09:55:18;14.10;;;5.93;;
7359;SDS011;3720;48.274;7.796;2022-10-30T09:57:59;10.00;;;5.40;;
7359;SDS011;3720;48.274;7.796;2022-10-30T10:00:42;10.05;;;5.05;;
7359;SDS011;3720;48.274;7.796;2022-10-30T10:03:32;12.20;;;5.30;;
7359;SDS011;3720;48.274;7.796;2022-10-30T10:06:14;15.85;;;5.25;;
7359;SDS011;3720;48.274;7.796;2022-10-30T10:08:49;13.88;;;5.32;;
7359;SDS011;3720;48.274;7.796;2022-10-30T10:11:26;13.25;;;5.03;;
7359;SDS011;3720;48.274;7.796;2022-10-30T10:14:02;17.42;;;5.10;;
7359;SDS011;3720;48.274;7.796;2022-10-30T10:16:40;10.82;;;4.78;;
7359;SDS011;3720;48.274;7.796;2022-10-30T10:19:14;12.60;;;5.40;;
7359;SDS011;3720;48.274;7.796;2022-10-30T10:21:52;16.60;;;5.25;;
7359;SDS011;3720;48.274;7.796;2022-10-30T10:24:27;12.18;;;5.40;;
7359;SDS011;3720;48.274;7.796;2022-10-30T10:27:04;9.98;;;5.18;;
7359;SDS011;3720;48.274;7.796;2022-10-30T10:29:46;13.52;;;5.18;;
7359;SDS011;3720;48.274;7.796;2022-10-30T10:35:36;14.63;;;5.25;;
7359;SDS011;3720;48.274;7.796;2022-10-30T10:38:20;11.73;;;4.88;;
7359;SDS011;3720;48.274;7.796;2022-10-30T10:41:04;8.63;;;4.15;;
7359;SDS011;3720;48.274;7.796;2022-10-30T10:43:56;16.17;;;5.13;;
7359;SDS011;3720;48.274;7.796;2022-10-30T10:46:36;9.27;;;4.60;;
7359;SDS011;3720;48.274;7.796;2022-10-30T10:49:22;13.00;;;4.78;;
7359;SDS011;3720;48.274;7.796;2022-10-30T10:52:07;13.45;;;4.60;;
7359;SDS011;3720;48.274;7.796;2022-10-30T10:54:40;10.98;;;5.05;;
7359;SDS011;3720;48.274;7.796;2022-10-30T10:57:15;13.10;;;5.43;;
7359;SDS011;3720;48.274;7.796;2022-10-30T10:59:53;9.90;;;5.22;;
7359;SDS011;3720;48.274;7.796;2022-10-30T11:02:33;9.65;;;5.13;;
7359;SDS011;3720;48.274;7.796;2022-10-30T11:05:15;11.05;;;5.28;;
7359;SDS011;3720;48.274;7.796;2022-10-30T11:07:53;12.32;;;5.03;;
7359;SDS011;3720;48.274;7.796;2022-10-30T11:10:31;12.45;;;5.03;;
7359;SDS011;3720;48.274;7.796;2022-10-30T11:13:03;13.73;;;5.13;;
7359;SDS011;3720;48.274;7.796;2022-10-30T11:15:37;10.77;;;4.70;;
7359;SDS011;3720;48.274;7.796;2022-10-30T11:18:16;12.80;;;5.32;;
7359;SDS011;3720;48.274;7.796;2022-10-30T11:20:52;9.10;;;4.80;;
7359;SDS011;3720;48.274;7.796;2022-10-30T11:23:31;14.05;;;4.60;;
7359;SDS011;3720;48.274;7.796;2022-10-30T11:26:08;12.45;;;4.88;;
7359;SDS011;3720;48.274;7.796;2022-10-30T11:29:03;10.05;;;4.70;;
7359;SDS011;3720;48.274;7.796;2022-10-30T11:31:37;10.82;;;4.78;;
7359;SDS011;3720;48.274;7.796;2022-10-30T11:34:18;10.35;;;4.80;;
7359;SDS011;3720;48.274;7.796;2022-10-30T11:37:00;10.35;;;4.35;;
7359;SDS011;3720;48.274;7.796;2022-10-30T11:39:33;12.65;;;4.63;;
7359;SDS011;3720;48.274;7.796;2022-10-30T11:42:11;16.13;;;5.55;;
7359;SDS011;3720;48.274;7.796;2022-10-30T11:44:47;11.55;;;5.30;;
7359;SDS011;3720;48.274;7.796;2022-10-30T11:47:21;14.55;;;4.93;;
7359;SDS011;3720;48.274;7.796;2022-10-30T11:50:00;11.95;;;4.72;;
7359;SDS011;3720;48.274;7.796;2022-10-30T11:52:36;11.80;;;4.72;;
7359;SDS011;3720;48.274;7.796;2022-10-30T11:55:13;11.20;;;4.82;;
7359;SDS011;3720;48.274;7.796;2022-10-30T11:57:49;15.60;;;4.75;;
7359;SDS011;3720;48.274;7.796;2022-10-30T12:00:23;13.23;;;4.47;;
7359;SDS011;3720;48.274;7.796;2022-10-30T12:02:57;10.63;;;4.38;;
7359;SDS011;3720;48.274;7.796;2022-10-30T12:05:35;15.88;;;4.38;;
7359;SDS011;3720;48.274;7.796;2022-10-30T12:08:20;9.73;;;4.20;;
7359;SDS011;3720;48.274;7.796;2022-10-30T12:10:56;12.18;;;4.50;;
7359;SDS011;3720;48.274;7.796;2022-10-30T12:13:37;12.40;;;4.15;;
7359;SDS011;3720;48.274;7.796;2022-10-30T12:16:14;9.93;;;4.20;;
7359;SDS011;3720;48.274;7.796;2022-10-30T12:18:51;13.80;;;4.15;;
7359;SDS011;3720;48.274;7.796;2022-10-30T12:21:28;8.48;;;4.00;;
7359;SDS011;3720;48.274;7.796;2022-10-30T12:24:11;13.00;;;4.50;;
7359;SDS011;3720;48.274;7.796;2022-10-30T12:26:48;11.63;;;3.80;;
7359;SDS011;3720;48.274;7.796;2022-10-30T12:29:24;10.05;;;4.20;;
7359;SDS011;3720;48.274;7.796;2022-10-30T12:32:07;11.25;;;4.10;;
7359;SDS011;3720;48.274;7.796;2022-10-30T12:34:46;8.82;;;3.90;;
7359;SDS011;3720;48.274;7.796;2022-10-30T12:37:26;13.82;;;4.38;;
7359;SDS011;3720;48.274;7.796;2022-10-30T12:40:04;13.63;;;4.18;;
7359;SDS011;3720;48.274;7.796;2022-10-30T12:42:44;16.45;;;3.90;;
7359;SDS011;3720;48.274;7.796;2022-10-30T12:45:22;9.32;;;3.90;;
7359;SDS011;3720;48.274;7.796;2022-10-30T12:47:59;10.52;;;4.68;;
7359;SDS011;3720;48.274;7.796;2022-10-30T12:50:39;16.23;;;4.82;;
7359;SDS011;3720;48.274;7.796;2022-10-30T12:53:19;12.50;;;5.00;;
7359;SDS011;3720;48.274;7.796;2022-10-30T12:55:59;11.93;;;5.00;;
7359;SDS011;3720;48.274;7.796;2022-10-30T12:58:38;9.60;;;4.53;;
7359;SDS011;3720;48.274;7.796;2022-10-30T13:01:16;10.48;;;4.80;;
7359;SDS011;3720;48.274;7.796;2022-10-30T13:03:56;11.70;;;4.68;;
7359;SDS011;3720;48.274;7.796;2022-10-30T13:06:38;13.27;;;4.47;;
7359;SDS011;3720;48.274;7.796;2022-10-30T13:09:17;12.57;;;4.32;;
7359;SDS011;3720;48.274;7.796;2022-10-30T13:11:56;6.85;;;3.63;;
7359;SDS011;3720;48.274;7.796;2022-10-30T13:14:33;10.18;;;3.90;;
7359;SDS011;3720;48.274;7.796;2022-10-30T13:17:10;12.15;;;4.05;;
7359;SDS011;3720;48.274;7.796;2022-10-30T13:19:44;9.98;;;3.78;;
7359;SDS011;3720;48.274;7.796;2022-10-30T13:22:18;8.85;;;3.50;;
7359;SDS011;3720;48.274;7.796;2022-10-30T13:24:55;14.70;;;4.18;;
7359;SDS011;3720;48.274;7.796;2022-10-30T13:27:35;8.20;;;3.65;;
7359;SDS011;3720;48.274;7.796;2022-10-30T13:30:13;9.52;;;3.60;;
7359;SDS011;3720;48.274;7.796;2022-10-30T13:32:52;11.98;;;3.95;;
7359;SDS011;3720;48.274;7.796;2022-10-30T13:35:37;8.60;;;3.45;;
7359;SDS011;3720;48.274;7.796;2022-10-30T13:38:23;10.70;;;3.67;;
7359;SDS011;3720;48.274;7.796;2022-10-30T13:41:06;10.13;;;3.72;;
7359;SDS011;3720;48.274;7.796;2022-10-30T13:43:47;10.20;;;3.97;;
7359;SDS011;3720;48.274;7.796;2022-10-30T13:46:30;13.25;;;3.92;;
7359;SDS011;3720;48.274;7.796;2022-10-30T13:49:20;9.63;;;3.90;;
7359;SDS011;3720;48.274;7.796;2022-10-30T13:52:21;8.25;;;3.83;;
7359;SDS011;3720;48.274;7.796;2022-10-30T13:54:56;9.63;;;3.63;;
7359;SDS011;3720;48.274;7.796;2022-10-30T13:57:35;8.85;;;3.83;;
7359;SDS011;3720;48.274;7.796;2022-10-30T14:00:15;10.40;;;3.53;;
7359;SDS011;3720;48.274;7.796;2022-10-30T14:03:03;12.75;;;3.90;;
7359;SDS011;3720;48.274;7.796;2022-10-30T14:05:45;12.55;;;3.83;;
7359;SDS011;3720;48.274;7.796;2022-10-30T14:11:04;8.77;;;3.40;;
7359;SDS011;3720;48.274;7.796;2022-10-30T14:13:45;13.38;;;3.38;;
7359;SDS011;3720;48.274;7.796;2022-10-30T14:16:36;9.63;;;3.20;;
7359;SDS011;3720;48.274;7.796;2022-10-30T14:19:11;9.70;;;3.58;;
7359;SDS011;3720;48.274;7.796;2022-10-30T14:21:51;10.20;;;3.38;;
7359;SDS011;3720;48.274;7.796;2022-10-30T14:24:25;11.23;;;3.60;;
7359;SDS011;3720;48.274;7.796;2022-10-30T14:27:08;7.90;;;3.30;;
7359;SDS011;3720;48.274;7.796;2022-10-30T14:29:43;9.82;;;3.47;;
7359;SDS011;3720;48.274;7.796;2022-10-30T14:35:29;9.82;;;3.10;;
7359;SDS011;3720;48.274;7.796;2022-10-30T14:38:21;9.40;;;3.28;;
7359;SDS011;3720;48.274;7.796;2022-10-30T14:41:07;9.65;;;3.30;;
7359;SDS011;3720;48.274;7.796;2022-10-30T14:44:01;7.05;;;2.78;;
7359;SDS011;3720;48.274;7.796;2022-10-30T14:46:56;9.15;;;3.10;;
7359;SDS011;3720;48.274;7.796;2022-10-30T14:49:44;8.05;;;3.22;;
7359;SDS011;3720;48.274;7.796;2022-10-30T14:52:27;9.27;;;3.13;;
7359;SDS011;3720;48.274;7.796;2022-10-30T14:55:17;8.65;;;2.85;;
7359;SDS011;3720;48.274;7.796;2022-10-30T14:58:12;12.52;;;3.15;;
7359;SDS011;3720;48.274;7.796;2022-10-30T15:00:47;10.38;;;3.35;;
7359;SDS011;3720;48.274;7.796;2022-10-30T15:03:25;8.05;;;3.08;;
7359;SDS011;3720;48.274;7.796;2022-10-30T15:06:13;7.38;;;3.28;;
7359;SDS011;3720;48.274;7.796;2022-10-30T15:08:59;9.80;;;3.28;;
7359;SDS011;3720;48.274;7.796;2022-10-30T15:11:53;7.82;;;3.40;;
7359;SDS011;3720;48.274;7.796;2022-10-30T15:14:48;10.30;;;3.55;;
7359;SDS011;3720;48.274;7.796;2022-10-30T15:17:28;10.35;;;3.50;;
7359;SDS011;3720;48.274;7.796;2022-10-30T15:20:03;9.20;;;3.15;;
7359;SDS011;3720;48.274;7.796;2022-10-30T15:22:39;10.13;;;3.45;;
7359;SDS011;3720;48.274;7.796;2022-10-30T15:25:15;7.63;;;3.03;;
7359;SDS011;3720;48.274;7.796;2022-10-30T15:27:50;8.32;;;3.13;;
7359;SDS011;3720;48.274;7.796;2022-10-30T15:30:25;6.70;;;3.10;;
7359;SDS011;3720;48.274;7.796;2022-10-30T15:32:58;7.38;;;3.20;;
7359;SDS011;3720;48.274;7.796;2022-10-30T15:35:30;10.63;;;3.08;;
7359;SDS011;3720;48.274;7.796;2022-10-30T15:38:04;7.78;;;3.17;;
7359;SDS011;3720;48.274;7.796;2022-10-30T15:40:37;6.70;;;3.20;;
7359;SDS011;3720;48.274;7.796;2022-10-30T15:43:10;12.85;;;3.88;;
7359;SDS011;3720;48.274;7.796;2022-10-30T15:45:45;11.95;;;4.07;;
7359;SDS011;3720;48.274;7.796;2022-10-30T15:48:21;10.07;;;4.25;;
7359;SDS011;3720;48.274;7.796;2022-10-30T15:50:57;8.52;;;3.50;;
7359;SDS011;3720;48.274;7.796;2022-10-30T15:53:34;8.05;;;3.60;;
7359;SDS011;3720;48.274;7.796;2022-10-30T15:56:11;6.93;;;3.60;;
7359;SDS011;3720;48.274;7.796;2022-10-30T15:58:48;7.80;;;3.53;;
7359;SDS011;3720;48.274;7.796;2022-10-30T16:01:23;8.90;;;3.80;;
7359;SDS011;3720;48.274;7.796;2022-10-30T16:03:56;6.75;;;3.35;;
7359;SDS011;3720;48.274;7.796;2022-10-30T16:06:29;7.47;;;3.88;;